MMD2A EBBR-LFPG
Flight info
| Callsign | MMD2A |
|---|---|
| Flight time | 0h 44m |
| Altitude | 19000 |
| Route | CIV Y50 IDOKO/N0416F170 Y50 MATIX |
| Aircraft | A359/H-SDE2E3GHIJ3J4J5LM1ORWXY/LB1D1 |
Departure
| Time | 2026-05-08 20:09 |
|---|---|
| Airport | Brussels Airport (EBBR) |
Arrival
| Time | 2026-05-08 20:53 |
|---|---|
| Airport | Charles de Gaulle International Airport (LFPG) |
| Time | Latitude | Longitude | Altitude | Speed | Heading |
|---|---|---|---|---|---|
| 2026-05-08 19:23 | 50.90468 | 4.46393 | 149 ft | 0 kts | 335° |
| 2026-05-08 19:52 | 50.90456 | 4.46401 | 149 ft | 2 kts | 335° |
| 2026-05-08 19:53 | 50.90441 | 4.46412 | 150 ft | 2 kts | 335° |
| 2026-05-08 19:53 | 50.90426 | 4.46426 | 151 ft | 3 kts | 303° |
| 2026-05-08 19:53 | 50.90419 | 4.46453 | 151 ft | 3 kts | 264° |
| 2026-05-08 19:53 | 50.90425 | 4.46481 | 151 ft | 3 kts | 225° |
| 2026-05-08 19:54 | 50.90436 | 4.46495 | 150 ft | 0 kts | 197° |
| 2026-05-08 19:55 | 50.90434 | 4.46494 | 150 ft | 1 kts | 198° |
| 2026-05-08 19:55 | 50.90421 | 4.46482 | 151 ft | 6 kts | 212° |
| 2026-05-08 19:55 | 50.90389 | 4.46435 | 153 ft | 6 kts | 230° |
| 2026-05-08 19:56 | 50.90365 | 4.46373 | 154 ft | 7 kts | 242° |
| 2026-05-08 19:56 | 50.90335 | 4.46284 | 153 ft | 11 kts | 242° |
| 2026-05-08 19:56 | 50.90296 | 4.46158 | 152 ft | 14 kts | 247° |
| 2026-05-08 19:56 | 50.90256 | 4.46014 | 154 ft | 15 kts | 245° |
| 2026-05-08 19:57 | 50.90209 | 4.45853 | 154 ft | 17 kts | 245° |
| 2026-05-08 19:57 | 50.90159 | 4.45685 | 158 ft | 17 kts | 245° |
| 2026-05-08 19:57 | 50.90138 | 4.45614 | 158 ft | 0 kts | 245° |
| 2026-05-08 19:57 | 50.90136 | 4.45609 | 158 ft | 3 kts | 245° |
| 2026-05-08 19:58 | 50.90118 | 4.45560 | 158 ft | 6 kts | 226° |
| 2026-05-08 19:58 | 50.90088 | 4.45534 | 160 ft | 3 kts | 189° |
| 2026-05-08 19:58 | 50.90080 | 4.45536 | 160 ft | 0 kts | 172° |
| 2026-05-08 20:06 | 50.90037 | 4.45556 | 163 ft | 11 kts | 158° |
| 2026-05-08 20:07 | 50.89988 | 4.45587 | 163 ft | 12 kts | 158° |
| 2026-05-08 20:07 | 50.89935 | 4.45632 | 163 ft | 8 kts | 129° |
| 2026-05-08 20:07 | 50.89945 | 4.45748 | 161 ft | 0 kts | 70° |
| 2026-05-08 20:07 | 50.89947 | 4.45756 | 160 ft | 2 kts | 70° |
| 2026-05-08 20:08 | 50.89959 | 4.45806 | 160 ft | 7 kts | 68° |
| 2026-05-08 20:08 | 50.90001 | 4.45958 | 158 ft | 45 kts | 65° |
| 2026-05-08 20:08 | 50.90238 | 4.46768 | 152 ft | 115 kts | 65° |
| 2026-05-08 20:08 | 50.90672 | 4.48212 | 212 ft | 169 kts | 63° |
| 2026-05-08 20:09 | 50.91203 | 4.49981 | 693 ft | 192 kts | 64° |
| 2026-05-08 20:09 | 50.91803 | 4.52041 | 1059 ft | 216 kts | 66° |
| 2026-05-08 20:09 | 50.92428 | 4.54246 | 1777 ft | 225 kts | 66° |
| 2026-05-08 20:09 | 50.93087 | 4.56597 | 2727 ft | 239 kts | 66° |
| 2026-05-08 20:10 | 50.93776 | 4.59044 | 3737 ft | 246 kts | 66° |
| 2026-05-08 20:10 | 50.94286 | 4.61672 | 4711 ft | 253 kts | 78° |
| 2026-05-08 20:10 | 50.94605 | 4.64413 | 5748 ft | 260 kts | 82° |
| 2026-05-08 20:10 | 50.94833 | 4.67310 | 6844 ft | 269 kts | 87° |
| 2026-05-08 20:11 | 50.94697 | 4.70296 | 7672 ft | 275 kts | 103° |
| 2026-05-08 20:11 | 50.93970 | 4.73117 | 8543 ft | 280 kts | 123° |
| 2026-05-08 20:11 | 50.92635 | 4.75378 | 9489 ft | 283 kts | 145° |
| 2026-05-08 20:11 | 50.90852 | 4.76687 | 10375 ft | 287 kts | 167° |
| 2026-05-08 20:12 | 50.88809 | 4.76857 | 10842 ft | 306 kts | 189° |
| 2026-05-08 20:12 | 50.86777 | 4.75593 | 11233 ft | 327 kts | 214° |
| 2026-05-08 20:12 | 50.85200 | 4.72887 | 11698 ft | 344 kts | 240° |
| 2026-05-08 20:12 | 50.84455 | 4.69254 | 12434 ft | 353 kts | 259° |
| 2026-05-08 20:13 | 50.84186 | 4.65335 | 13222 ft | 362 kts | 266° |
| 2026-05-08 20:13 | 50.84122 | 4.61323 | 14014 ft | 368 kts | 269° |
| 2026-05-08 20:13 | 50.84131 | 4.57308 | 14740 ft | 372 kts | 270° |
| 2026-05-08 20:13 | 50.84136 | 4.53195 | 15561 ft | 375 kts | 269° |
| 2026-05-08 20:14 | 50.83693 | 4.49134 | 16311 ft | 377 kts | 250° |
| 2026-05-08 20:14 | 50.82656 | 4.45312 | 17102 ft | 380 kts | 243° |
| 2026-05-08 20:14 | 50.81359 | 4.41639 | 17876 ft | 384 kts | 239° |
| 2026-05-08 20:14 | 50.79927 | 4.38052 | 18621 ft | 388 kts | 237° |
| 2026-05-08 20:15 | 50.78425 | 4.34456 | 19270 ft | 394 kts | 237° |
| 2026-05-08 20:15 | 50.76896 | 4.30811 | 19928 ft | 400 kts | 237° |
| 2026-05-08 20:15 | 50.75363 | 4.27112 | 20608 ft | 405 kts | 238° |
| 2026-05-08 20:15 | 50.73829 | 4.23357 | 21266 ft | 410 kts | 238° |
| 2026-05-08 20:16 | 50.72284 | 4.19532 | 21917 ft | 415 kts | 238° |
| 2026-05-08 20:16 | 50.70731 | 4.15663 | 22553 ft | 420 kts | 238° |
| 2026-05-08 20:16 | 50.69160 | 4.11742 | 23222 ft | 425 kts | 238° |
| 2026-05-08 20:16 | 50.67571 | 4.07776 | 23845 ft | 430 kts | 239° |
| 2026-05-08 20:17 | 50.65959 | 4.03761 | 24378 ft | 435 kts | 239° |
| 2026-05-08 20:17 | 50.64332 | 3.99717 | 24871 ft | 440 kts | 239° |
| 2026-05-08 20:17 | 50.62670 | 3.95708 | 25007 ft | 431 kts | 236° |
| 2026-05-08 20:17 | 50.60785 | 3.92081 | 24514 ft | 428 kts | 228° |
| 2026-05-08 20:18 | 50.58542 | 3.88964 | 23762 ft | 433 kts | 217° |
| 2026-05-08 20:18 | 50.55953 | 3.86559 | 23121 ft | 431 kts | 205° |
| 2026-05-08 20:18 | 50.53160 | 3.84976 | 22630 ft | 425 kts | 194° |
| 2026-05-08 20:18 | 50.50313 | 3.84243 | 22205 ft | 404 kts | 184° |
| 2026-05-08 20:19 | 50.47559 | 3.84296 | 21835 ft | 389 kts | 175° |
| 2026-05-08 20:19 | 50.44943 | 3.84731 | 21430 ft | 369 kts | 173° |
| 2026-05-08 20:19 | 50.42489 | 3.85265 | 20996 ft | 353 kts | 172° |
| 2026-05-08 20:19 | 50.40090 | 3.85837 | 20353 ft | 344 kts | 172° |
| 2026-05-08 20:20 | 50.37743 | 3.86408 | 19677 ft | 339 kts | 172° |
| 2026-05-08 20:20 | 50.35425 | 3.86959 | 19236 ft | 335 kts | 172° |
| 2026-05-08 20:20 | 50.33126 | 3.87489 | 19113 ft | 334 kts | 172° |
| 2026-05-08 20:20 | 50.30819 | 3.87952 | 19099 ft | 335 kts | 174° |
| 2026-05-08 20:21 | 50.28508 | 3.88345 | 19105 ft | 332 kts | 175° |
| 2026-05-08 20:21 | 50.26210 | 3.88708 | 19095 ft | 332 kts | 175° |
| 2026-05-08 20:21 | 50.23914 | 3.89068 | 19096 ft | 331 kts | 174° |
| 2026-05-08 20:21 | 50.21621 | 3.89434 | 19097 ft | 331 kts | 174° |
| 2026-05-08 20:22 | 50.19321 | 3.89476 | 19098 ft | 331 kts | 186° |
| 2026-05-08 20:22 | 50.17074 | 3.88783 | 19094 ft | 330 kts | 195° |
| 2026-05-08 20:22 | 50.14876 | 3.87749 | 19096 ft | 329 kts | 199° |
| 2026-05-08 20:22 | 50.12723 | 3.86538 | 19095 ft | 329 kts | 201° |
| 2026-05-08 20:23 | 50.10579 | 3.85236 | 19094 ft | 330 kts | 202° |
| 2026-05-08 20:23 | 50.08445 | 3.83913 | 19095 ft | 331 kts | 202° |
| 2026-05-08 20:23 | 50.06301 | 3.82592 | 19092 ft | 331 kts | 201° |
| 2026-05-08 20:23 | 50.04161 | 3.81293 | 19091 ft | 331 kts | 201° |
| 2026-05-08 20:24 | 50.02039 | 3.80024 | 19089 ft | 331 kts | 201° |
| 2026-05-08 20:24 | 49.99886 | 3.78749 | 19090 ft | 331 kts | 201° |
| 2026-05-08 20:24 | 49.97733 | 3.77484 | 19103 ft | 331 kts | 201° |
| 2026-05-08 20:24 | 49.95580 | 3.76222 | 19088 ft | 331 kts | 201° |
| 2026-05-08 20:25 | 49.93422 | 3.74960 | 18814 ft | 332 kts | 201° |
| 2026-05-08 20:25 | 49.91264 | 3.73698 | 18476 ft | 329 kts | 201° |
| 2026-05-08 20:25 | 49.89141 | 3.72458 | 18133 ft | 324 kts | 200° |
| 2026-05-08 20:25 | 49.87042 | 3.71232 | 17694 ft | 322 kts | 200° |
| 2026-05-08 20:26 | 49.84952 | 3.70012 | 17285 ft | 319 kts | 200° |
| 2026-05-08 20:26 | 49.82888 | 3.68808 | 16907 ft | 315 kts | 200° |
| 2026-05-08 20:26 | 49.80845 | 3.67617 | 16479 ft | 313 kts | 200° |
| 2026-05-08 20:26 | 49.78811 | 3.66432 | 16063 ft | 311 kts | 200° |
| 2026-05-08 20:27 | 49.76791 | 3.65257 | 15652 ft | 309 kts | 200° |
| 2026-05-08 20:27 | 49.74790 | 3.64094 | 15278 ft | 306 kts | 200° |
| 2026-05-08 20:27 | 49.72834 | 3.62957 | 15101 ft | 303 kts | 200° |
| 2026-05-08 20:27 | 49.70859 | 3.61811 | 15076 ft | 303 kts | 200° |
| 2026-05-08 20:28 | 49.68880 | 3.60663 | 15079 ft | 304 kts | 200° |
| 2026-05-08 20:28 | 49.66886 | 3.59509 | 15080 ft | 305 kts | 201° |
| 2026-05-08 20:28 | 49.64899 | 3.58359 | 15080 ft | 306 kts | 201° |
| 2026-05-08 20:28 | 49.62905 | 3.57206 | 15078 ft | 306 kts | 201° |
| 2026-05-08 20:29 | 49.60911 | 3.56054 | 15079 ft | 306 kts | 201° |
| 2026-05-08 20:29 | 49.58917 | 3.54902 | 15081 ft | 306 kts | 201° |
| 2026-05-08 20:29 | 49.56923 | 3.53752 | 15081 ft | 306 kts | 201° |
| 2026-05-08 20:29 | 49.54926 | 3.52602 | 15074 ft | 306 kts | 201° |
| 2026-05-08 20:30 | 49.52926 | 3.51450 | 15076 ft | 306 kts | 201° |
| 2026-05-08 20:30 | 49.50931 | 3.50302 | 15077 ft | 306 kts | 201° |
| 2026-05-08 20:30 | 49.48957 | 3.49167 | 15078 ft | 306 kts | 201° |
| 2026-05-08 20:30 | 49.46961 | 3.48021 | 15078 ft | 306 kts | 201° |
| 2026-05-08 20:31 | 49.44969 | 3.46850 | 15076 ft | 306 kts | 203° |
| 2026-05-08 20:31 | 49.43116 | 3.45262 | 15077 ft | 305 kts | 217° |
| 2026-05-08 20:31 | 49.41625 | 3.42969 | 15071 ft | 305 kts | 236° |
| 2026-05-08 20:31 | 49.40633 | 3.40098 | 15079 ft | 304 kts | 246° |
| 2026-05-08 20:32 | 49.39802 | 3.37101 | 15079 ft | 305 kts | 247° |
| 2026-05-08 20:32 | 49.38991 | 3.34088 | 15077 ft | 305 kts | 247° |
| 2026-05-08 20:32 | 49.38183 | 3.31075 | 15075 ft | 305 kts | 247° |
| 2026-05-08 20:32 | 49.37373 | 3.28061 | 15074 ft | 305 kts | 247° |
| 2026-05-08 20:33 | 49.36562 | 3.25041 | 15078 ft | 305 kts | 247° |
| 2026-05-08 20:33 | 49.35754 | 3.22036 | 15078 ft | 305 kts | 247° |
| 2026-05-08 20:33 | 49.34943 | 3.19025 | 15078 ft | 305 kts | 247° |
| 2026-05-08 20:33 | 49.34131 | 3.16016 | 15078 ft | 305 kts | 247° |
| 2026-05-08 20:34 | 49.33328 | 3.13040 | 15079 ft | 305 kts | 247° |
| 2026-05-08 20:34 | 49.32516 | 3.10036 | 15084 ft | 305 kts | 247° |
| 2026-05-08 20:34 | 49.30885 | 3.04012 | 15082 ft | 306 kts | 247° |
| 2026-05-08 20:35 | 49.30067 | 3.01000 | 15080 ft | 306 kts | 247° |
| 2026-05-08 20:35 | 49.29250 | 2.97992 | 15068 ft | 305 kts | 247° |
| 2026-05-08 20:35 | 49.28441 | 2.95019 | 14732 ft | 301 kts | 247° |
| 2026-05-08 20:35 | 49.27635 | 2.92061 | 14315 ft | 301 kts | 247° |
| 2026-05-08 20:36 | 49.26830 | 2.89112 | 13923 ft | 298 kts | 247° |
| 2026-05-08 20:36 | 49.26035 | 2.86199 | 13534 ft | 295 kts | 247° |
| 2026-05-08 20:36 | 49.25245 | 2.83310 | 13102 ft | 293 kts | 247° |
| 2026-05-08 20:36 | 49.24461 | 2.80448 | 12669 ft | 291 kts | 247° |
| 2026-05-08 20:37 | 49.23680 | 2.77598 | 12253 ft | 289 kts | 247° |
| 2026-05-08 20:37 | 49.22906 | 2.74776 | 11831 ft | 287 kts | 247° |
| 2026-05-08 20:37 | 49.22135 | 2.71971 | 11441 ft | 285 kts | 247° |
| 2026-05-08 20:37 | 49.21373 | 2.69199 | 11136 ft | 282 kts | 247° |
| 2026-05-08 20:38 | 49.20610 | 2.66430 | 11060 ft | 282 kts | 247° |
| 2026-05-08 20:38 | 49.19847 | 2.63664 | 11081 ft | 284 kts | 247° |
| 2026-05-08 20:38 | 49.19086 | 2.60906 | 11081 ft | 285 kts | 247° |
| 2026-05-08 20:38 | 49.18353 | 2.58087 | 11061 ft | 286 kts | 252° |
| 2026-05-08 20:39 | 49.18026 | 2.55108 | 10945 ft | 282 kts | 266° |
| 2026-05-08 20:39 | 49.17948 | 2.52113 | 10492 ft | 283 kts | 268° |
| 2026-05-08 20:39 | 49.17901 | 2.49111 | 10067 ft | 282 kts | 268° |
| 2026-05-08 20:39 | 49.17850 | 2.46112 | 9633 ft | 281 kts | 268° |
| 2026-05-08 20:40 | 49.17792 | 2.43134 | 9207 ft | 279 kts | 268° |
| 2026-05-08 20:40 | 49.17732 | 2.40244 | 8935 ft | 263 kts | 268° |
| 2026-05-08 20:40 | 49.17674 | 2.37517 | 8598 ft | 253 kts | 267° |
| 2026-05-08 20:40 | 49.17623 | 2.34862 | 8334 ft | 247 kts | 268° |
| 2026-05-08 20:41 | 49.17585 | 2.32238 | 7994 ft | 246 kts | 268° |
| 2026-05-08 20:41 | 49.17495 | 2.29635 | 7643 ft | 245 kts | 262° |
| 2026-05-08 20:41 | 49.17192 | 2.27096 | 7323 ft | 242 kts | 257° |
| 2026-05-08 20:41 | 49.16842 | 2.24585 | 7014 ft | 241 kts | 257° |
| 2026-05-08 20:42 | 49.16485 | 2.22080 | 6662 ft | 241 kts | 257° |
| 2026-05-08 20:42 | 49.16131 | 2.19584 | 6357 ft | 239 kts | 256° |
| 2026-05-08 20:42 | 49.15575 | 2.17258 | 6096 ft | 235 kts | 239° |
| 2026-05-08 20:42 | 49.14654 | 2.15189 | 5897 ft | 236 kts | 232° |
| 2026-05-08 20:43 | 49.13663 | 2.13181 | 5690 ft | 237 kts | 232° |
| 2026-05-08 20:43 | 49.12658 | 2.11177 | 5467 ft | 237 kts | 231° |
| 2026-05-08 20:43 | 49.11664 | 2.09174 | 5279 ft | 237 kts | 232° |
| 2026-05-08 20:43 | 49.10671 | 2.07165 | 5074 ft | 237 kts | 231° |
| 2026-05-08 20:44 | 49.09689 | 2.05154 | 4888 ft | 237 kts | 232° |
| 2026-05-08 20:44 | 49.08704 | 2.03137 | 4625 ft | 236 kts | 232° |
| 2026-05-08 20:44 | 49.07717 | 2.01128 | 4246 ft | 237 kts | 231° |
| 2026-05-08 20:44 | 49.06730 | 1.99125 | 4022 ft | 236 kts | 232° |
| 2026-05-08 20:45 | 49.05737 | 1.97118 | 3992 ft | 238 kts | 231° |
| 2026-05-08 20:45 | 49.05071 | 1.95796 | 3990 ft | 238 kts | 230° |
| 2026-05-08 20:45 | 49.03253 | 1.94033 | 3993 ft | 233 kts | 189° |
| 2026-05-08 20:45 | 49.01708 | 1.94181 | 3994 ft | 228 kts | 158° |
| 2026-05-08 20:46 | 49.00453 | 1.95499 | 3989 ft | 218 kts | 129° |
| 2026-05-08 20:46 | 48.99563 | 1.97319 | 3996 ft | 217 kts | 122° |
| 2026-05-08 20:46 | 48.98719 | 1.99291 | 4006 ft | 225 kts | 122° |
| 2026-05-08 20:46 | 48.98165 | 2.01537 | 4009 ft | 232 kts | 93° |
| 2026-05-08 20:47 | 48.98527 | 2.03909 | 4082 ft | 230 kts | 65° |
| 2026-05-08 20:47 | 48.99209 | 2.06088 | 4149 ft | 227 kts | 65° |
| 2026-05-08 20:47 | 48.99882 | 2.08268 | 4145 ft | 230 kts | 68° |
| 2026-05-08 20:47 | 49.00360 | 2.10607 | 4121 ft | 233 kts | 79° |
| 2026-05-08 20:48 | 49.00563 | 2.13055 | 4110 ft | 235 kts | 88° |
| 2026-05-08 20:48 | 49.00611 | 2.15550 | 4108 ft | 237 kts | 90° |
| 2026-05-08 20:48 | 49.00630 | 2.18063 | 4110 ft | 238 kts | 85° |
| 2026-05-08 20:48 | 49.00753 | 2.20585 | 4121 ft | 240 kts | 86° |
| 2026-05-08 20:49 | 49.00896 | 2.23128 | 4035 ft | 243 kts | 85° |
| 2026-05-08 20:49 | 49.01049 | 2.25704 | 3972 ft | 245 kts | 85° |
| 2026-05-08 20:49 | 49.01194 | 2.28295 | 3629 ft | 245 kts | 85° |
| 2026-05-08 20:49 | 49.01318 | 2.30825 | 3395 ft | 230 kts | 86° |
| 2026-05-08 20:50 | 49.01411 | 2.33121 | 3221 ft | 206 kts | 87° |
| 2026-05-08 20:50 | 49.01510 | 2.35263 | 2895 ft | 203 kts | 84° |
| 2026-05-08 20:50 | 49.01668 | 2.37374 | 2593 ft | 193 kts | 82° |
| 2026-05-08 20:50 | 49.01805 | 2.39255 | 2531 ft | 165 kts | 84° |
| 2026-05-08 20:51 | 49.01887 | 2.40897 | 2309 ft | 152 kts | 86° |
| 2026-05-08 20:51 | 49.01950 | 2.42490 | 2014 ft | 150 kts | 85° |
| 2026-05-08 20:51 | 49.02028 | 2.44059 | 1744 ft | 148 kts | 84° |
| 2026-05-08 20:51 | 49.02109 | 2.45625 | 1415 ft | 151 kts | 85° |
| 2026-05-08 20:52 | 49.02188 | 2.47240 | 1151 ft | 153 kts | 85° |
| 2026-05-08 20:52 | 49.02266 | 2.48873 | 932 ft | 155 kts | 84° |
| 2026-05-08 20:52 | 49.02347 | 2.50513 | 725 ft | 154 kts | 85° |
| 2026-05-08 20:52 | 49.02453 | 2.52126 | 500 ft | 152 kts | 83° |
| 2026-05-08 20:53 | 49.02543 | 2.53705 | 369 ft | 146 kts | 83° |
| 2026-05-08 20:53 | 49.02614 | 2.55000 | 367 ft | 70 kts | 86° |
| 2026-05-08 20:53 | 49.02574 | 2.55285 | 367 ft | 35 kts | 114° |
| 2026-05-08 20:53 | 49.02493 | 2.55543 | 369 ft | 0 kts | 116° |
| 2026-05-08 20:54 | 49.02488 | 2.55560 | 365 ft | 12 kts | 115° |
| 2026-05-08 20:54 | 49.02472 | 2.55651 | 369 ft | 19 kts | 97° |
| 2026-05-08 20:54 | 49.02471 | 2.55814 | 365 ft | 19 kts | 89° |
| 2026-05-08 20:54 | 49.02408 | 2.55952 | 367 ft | 16 kts | 160° |
| 2026-05-08 20:55 | 49.02292 | 2.55968 | 366 ft | 18 kts | 177° |
| 2026-05-08 20:55 | 49.02165 | 2.55979 | 361 ft | 19 kts | 176° |
| 2026-05-08 20:55 | 49.02127 | 2.55983 | 365 ft | 0 kts | 176° |
| 2026-05-08 20:56 | 49.02115 | 2.55988 | 364 ft | 7 kts | 160° |
| 2026-05-08 20:56 | 49.02094 | 2.56035 | 368 ft | 5 kts | 106° |
| 2026-05-08 20:56 | 49.02096 | 2.56106 | 365 ft | 9 kts | 85° |
| 2026-05-08 20:57 | 49.02093 | 2.56204 | 364 ft | 12 kts | 102° |
| 2026-05-08 20:57 | 49.02042 | 2.56344 | 369 ft | 15 kts | 116° |
| 2026-05-08 20:57 | 49.02028 | 2.56497 | 367 ft | 14 kts | 86° |
| 2026-05-08 20:57 | 49.02036 | 2.56652 | 363 ft | 15 kts | 85° |
| 2026-05-08 20:58 | 49.02045 | 2.56821 | 366 ft | 16 kts | 85° |
| 2026-05-08 20:58 | 49.02055 | 2.56996 | 361 ft | 17 kts | 85° |
| 2026-05-08 20:58 | 49.02066 | 2.57183 | 366 ft | 18 kts | 85° |
| 2026-05-08 20:58 | 49.02077 | 2.57379 | 367 ft | 19 kts | 85° |
| 2026-05-08 20:59 | 49.02088 | 2.57581 | 365 ft | 20 kts | 85° |
| 2026-05-08 20:59 | 49.02082 | 2.57783 | 365 ft | 19 kts | 102° |
| 2026-05-08 20:59 | 49.02026 | 2.57965 | 367 ft | 19 kts | 125° |
| 2026-05-08 20:59 | 49.01926 | 2.58103 | 368 ft | 19 kts | 160° |
| 2026-05-08 21:00 | 49.01790 | 2.58132 | 369 ft | 21 kts | 178° |
| 2026-05-08 21:00 | 49.01642 | 2.58143 | 363 ft | 22 kts | 175° |
| 2026-05-08 21:00 | 49.01485 | 2.58162 | 362 ft | 23 kts | 175° |
| 2026-05-08 21:00 | 49.01320 | 2.58180 | 367 ft | 24 kts | 176° |
| 2026-05-08 21:01 | 49.01148 | 2.58200 | 366 ft | 25 kts | 176° |
| 2026-05-08 21:01 | 49.01029 | 2.58213 | 367 ft | 7 kts | 176° |
| 2026-05-08 21:01 | 49.00981 | 2.58218 | 368 ft | 5 kts | 176° |
| 2026-05-08 21:01 | 49.00935 | 2.58223 | 368 ft | 8 kts | 176° |
| 2026-05-08 21:02 | 49.00931 | 2.58224 | 368 ft | 0 kts | 176° |
| 2026-05-08 21:02 | 49.00916 | 2.58226 | 363 ft | 10 kts | 175° |
| 2026-05-08 21:03 | 49.00849 | 2.58249 | 369 ft | 4 kts | 133° |
| 2026-05-08 21:03 | 49.00837 | 2.58294 | 367 ft | 6 kts | 114° |
| 2026-05-08 21:03 | 49.00832 | 2.58354 | 363 ft | 7 kts | 92° |
| 2026-05-08 21:03 | 49.00836 | 2.58430 | 361 ft | 8 kts | 84° |
| 2026-05-08 21:04 | 49.00843 | 2.58525 | 366 ft | 10 kts | 84° |
| 2026-05-08 21:04 | 49.00849 | 2.58640 | 366 ft | 12 kts | 86° |
| 2026-05-08 21:04 | 49.00855 | 2.58771 | 366 ft | 13 kts | 86° |
| 2026-05-08 21:04 | 49.00862 | 2.58918 | 364 ft | 15 kts | 86° |
| 2026-05-08 21:05 | 49.00870 | 2.59078 | 362 ft | 16 kts | 86° |
| 2026-05-08 21:05 | 49.00873 | 2.59136 | 365 ft | 0 kts | 86° |
| 2026-05-08 21:05 | 49.00873 | 2.59143 | 365 ft | 4 kts | 85° |
| 2026-05-08 21:05 | 49.00873 | 2.59203 | 365 ft | 3 kts | 111° |
| 2026-05-08 21:06 | 49.00854 | 2.59237 | 369 ft | 5 kts | 137° |
| 2026-05-08 21:06 | 49.00831 | 2.59258 | 365 ft | 0 kts | 152° |
| 2026-05-08 21:10 | 49.00828 | 2.59260 | 361 ft | 5 kts | 154° |
| 2026-05-08 21:10 | 49.00742 | 2.59286 | 366 ft | 13 kts | 178° |
| 2026-05-08 21:10 | 49.00647 | 2.59300 | 364 ft | 9 kts | 178° |
| 2026-05-08 21:11 | 49.00643 | 2.59297 | 365 ft | 1 kts | 195° |
| 2026-05-08 21:11 | 49.00636 | 2.59287 | 367 ft | 1 kts | 223° |
| 2026-05-08 21:11 | 49.00634 | 2.59277 | 369 ft | 2 kts | 248° |
| 2026-05-08 21:11 | 49.00627 | 2.59214 | 368 ft | 8 kts | 264° |
| 2026-05-08 21:12 | 49.00625 | 2.59177 | 366 ft | 0 kts | 266° |